Time;durP1;ratioP1;P1;durP2;ratioP2;P2;SDS_P1;SDS_P2;PMS_P1;PMS_P2;Temp;Humidity;BMP_temperature;BMP_pressure;BME280_temperature;BME280_humidity;BME280_pressure;Samples;Min_cycle;Max_cycle;Signal;HPM_P1;HPM_P2
2022/04/25 08:23:26;;;;;;;9.77;8.88;;;9.70;99.90;;;;;;5119517;27;20540;-67
2022/04/25 08:25:52;;;;;;;10.45;9.35;;;9.80;99.90;;;;;;5091419;28;20258;-68
2022/04/25 08:28:19;;;;;;;9.68;8.88;;;10.00;99.90;;;;;;5091057;28;20172;-68
2022/04/25 08:30:45;;;;;;;9.45;8.57;;;10.10;99.90;;;;;;5091037;28;20164;-68
2022/04/25 08:33:12;;;;;;;10.07;8.55;;;10.10;99.90;;;;;;5089930;28;20179;-68
2022/04/25 08:35:38;;;;;;;9.57;8.60;;;10.20;99.90;;;;;;5090817;28;20160;-68
2022/04/25 08:38:04;;;;;;;9.45;8.70;;;10.20;99.90;;;;;;5090831;28;20560;-68
2022/04/25 08:40:30;;;;;;;10.80;9.63;;;10.30;99.90;;;;;;5090790;28;20570;-68
2022/04/25 08:42:57;;;;;;;10.43;9.52;;;10.30;99.90;;;;;;5090668;28;20287;-68
2022/04/25 08:45:23;;;;;;;9.82;9.00;;;10.20;99.90;;;;;;5090679;28;20168;-68
2022/04/25 08:48:00;;;;;;;8.68;7.85;;;10.30;99.90;;;;;;5089271;28;20179;-68
2022/04/25 08:50:30;;;;;;;9.38;8.27;;;10.30;99.90;;;;;;5090481;28;20259;-68
2022/04/25 08:52:57;;;;;;;16.23;9.38;;;10.40;99.90;;;;;;5090615;28;20164;-68
2022/04/25 08:55:23;;;;;;;9.70;8.85;;;10.50;99.90;;;;;;5090648;28;20168;-68
2022/04/25 08:57:51;;;;;;;10.88;9.93;;;10.60;99.90;;;;;;5089492;28;20180;-68
2022/04/25 09:00:17;;;;;;;9.02;8.23;;;10.60;99.90;;;;;;5090552;28;20238;-68
2022/04/25 09:02:44;;;;;;;9.88;8.90;;;10.70;99.90;;;;;;5090339;28;20203;-68
2022/04/25 09:05:11;;;;;;;12.10;10.82;;;10.80;99.90;;;;;;5090379;28;20250;-68
2022/04/25 09:07:38;;;;;;;11.00;10.00;;;10.80;99.90;;;;;;5090436;28;20160;-68
2022/04/25 09:10:12;;;;;;;10.13;9.23;;;10.90;99.90;;;;;;5090243;28;20195;-68
2022/04/25 09:12:38;;;;;;;10.32;8.85;;;10.90;99.90;;;;;;5090188;28;20187;-68
2022/04/25 09:15:05;;;;;;;10.77;9.68;;;11.00;99.90;;;;;;5090382;28;20164;-68
2022/04/25 09:17:32;;;;;;;10.73;9.65;;;11.10;99.90;;;;;;5090328;28;20196;-68
2022/04/25 09:19:58;;;;;;;10.40;9.48;;;11.20;99.90;;;;;;5090129;28;20167;-68
2022/04/25 09:22:32;;;;;;;10.52;9.05;;;11.30;99.90;;;;;;5088699;28;20224;-68
2022/04/25 09:25:24;;;;;;;10.93;9.82;;;11.50;99.90;;;;;;5089944;28;20164;-68
2022/04/25 09:28:12;;;;;;;12.35;10.15;;;11.60;99.90;;;;;;5085578;28;20176;-68
2022/04/25 09:30:38;;;;;;;11.50;10.50;;;11.60;99.90;;;;;;5090162;28;20164;-68
2022/04/25 09:33:20;;;;;;;10.85;9.88;;;11.60;99.90;;;;;;5086234;28;20173;-68
2022/04/25 09:35:56;;;;;;;10.65;8.90;;;11.50;99.90;;;;;;5075164;28;20207;-68
2022/04/25 09:38:33;;;;;;;14.50;8.70;;;11.60;99.90;;;;;;5075196;28;20172;-68
2022/04/25 09:40:59;;;;;;;10.82;9.80;;;11.60;99.90;;;;;;5076389;28;20172;-68
2022/04/25 09:43:34;;;;;;;10.25;9.18;;;11.60;99.90;;;;;;5076024;28;20269;-68
2022/04/25 09:46:00;;;;;;;8.98;8.25;;;11.70;99.90;;;;;;5076168;28;20169;-68
2022/04/25 09:48:25;;;;;;;8.40;7.72;;;11.90;99.90;;;;;;5076251;28;20501;-68
2022/04/25 09:51:09;;;;;;;10.00;8.73;;;12.00;99.90;;;;;;5076078;28;20662;-68
2022/04/25 09:53:52;;;;;;;8.60;7.90;;;12.20;99.90;;;;;;5076267;28;20247;-68
2022/04/25 09:56:29;;;;;;;8.77;8.07;;;12.30;99.90;;;;;;5075828;28;20168;-68
2022/04/25 09:59:05;;;;;;;9.63;8.68;;;12.50;99.90;;;;;;5075971;28;20157;-68
2022/04/25 10:01:34;;;;;;;7.60;7.00;;;12.50;99.90;;;;;;5074734;28;20200;-68
2022/04/25 10:04:00;;;;;;;8.82;8.23;;;12.60;99.90;;;;;;5076042;28;20164;-68
2022/04/25 10:06:31;;;;;;;9.10;8.30;;;12.60;99.90;;;;;;5076025;28;20172;-68
2022/04/25 10:08:59;;;;;;;9.18;8.25;;;12.50;99.90;;;;;;5075587;28;20168;-68
2022/04/25 10:11:32;;;;;;;9.75;8.93;;;12.30;99.90;;;;;;5075732;28;20176;-68
2022/04/25 10:13:58;;;;;;;8.85;8.10;;;12.20;99.90;;;;;;5075636;28;20208;-68
2022/04/25 10:16:25;;;;;;;8.45;7.75;;;12.30;99.90;;;;;;5075721;28;20646;-68
2022/04/25 10:18:52;;;;;;;8.13;7.63;;;12.30;99.90;;;;;;5075653;28;20174;-68
2022/04/25 10:21:18;;;;;;;9.20;8.50;;;12.30;99.90;;;;;;5073930;28;20232;-68
2022/04/25 10:23:44;;;;;;;7.95;7.35;;;12.30;99.90;;;;;;5074242;28;20188;-68
2022/04/25 10:26:10;;;;;;;8.52;7.85;;;12.30;99.90;;;;;;5075380;28;20529;-68
2022/04/25 10:28:35;;;;;;;8.73;8.02;;;12.30;99.90;;;;;;5075396;28;20226;-68
2022/04/25 10:31:04;;;;;;;8.35;7.65;;;12.30;99.90;;;;;;5075287;28;20175;-68
2022/04/25 10:33:51;;;;;;;13.50;7.30;;;12.30;99.90;;;;;;5075350;28;20222;-68
2022/04/25 10:36:39;;;;;;;8.85;7.85;;;12.30;99.90;;;;;;5074246;28;20551;-68
2022/04/25 10:39:46;;;;;;;9.00;8.05;;;12.50;99.90;;;;;;5075223;28;20247;-68
2022/04/25 10:44:57;;;;;;;8.70;7.97;;;12.50;99.90;;;;;;5070211;28;20183;-68
2022/04/25 10:47:28;;;;;;;9.07;7.65;;;12.50;99.90;;;;;;5074993;28;20161;-68
2022/04/25 10:49:55;;;;;;;10.77;8.18;;;12.40;99.90;;;;;;5074761;28;20156;-68
2022/04/25 10:52:41;;;;;;;8.48;7.60;;;12.30;99.90;;;;;;5074878;28;20237;-68
2022/04/25 10:55:23;;;;;;;9.13;7.35;;;12.20;99.90;;;;;;5074747;28;20165;-68
2022/04/25 10:58:07;;;;;;;8.48;7.75;;;12.10;99.90;;;;;;5074594;28;20172;-68
2022/04/25 11:00:41;;;;;;;7.95;7.22;;;12.10;99.90;;;;;;5074735;28;20168;-68
2022/04/25 11:03:24;;;;;;;7.38;6.68;;;12.20;99.90;;;;;;5074546;28;20180;-68
2022/04/25 11:05:58;;;;;;;6.80;6.35;;;12.20;99.90;;;;;;5074448;28;20194;-68
2022/04/25 11:08:26;;;;;;;6.93;6.32;;;12.30;99.90;;;;;;5074707;28;20156;-68
2022/04/25 11:10:58;;;;;;;7.45;6.70;;;12.40;99.90;;;;;;5074664;28;20168;-68
2022/04/25 11:13:26;;;;;;;7.68;7.10;;;12.40;99.90;;;;;;5074531;28;20524;-68
2022/04/25 11:16:13;;;;;;;6.38;5.97;;;12.50;99.90;;;;;;5074509;28;20168;-68
2022/04/25 11:18:41;;;;;;;6.60;6.03;;;12.60;99.90;;;;;;5074440;28;20172;-68
2022/04/25 11:21:15;;;;;;;5.38;5.07;;;12.60;99.90;;;;;;5074151;28;20226;-68
2022/04/25 11:23:43;;;;;;;6.50;5.82;;;12.70;99.90;;;;;;5074165;28;20717;-68
2022/04/25 11:26:11;;;;;;;5.10;4.80;;;12.70;99.90;;;;;;5074389;28;20168;-68
2022/04/25 11:29:00;;;;;;;5.45;5.00;;;12.80;99.90;;;;;;5074120;28;20707;-68
2022/04/25 11:31:29;;;;;;;5.70;5.25;;;13.10;99.90;;;;;;5074176;28;20165;-68
2022/04/25 11:34:01;;;;;;;5.53;5.13;;;13.50;99.90;;;;;;5074055;28;20229;-68
2022/04/25 11:36:27;;;;;;;5.45;5.07;;;13.80;99.90;;;;;;5073835;28;20210;-68
2022/04/25 11:41:39;;;;;;;5.70;5.20;;;14.30;99.90;;;;;;5073944;28;20246;-69
2022/04/25 11:44:05;;;;;;;5.07;4.78;;;14.30;99.90;;;;;;5073721;28;20184;-68
2022/04/25 11:46:33;;;;;;;4.78;4.47;;;14.30;99.90;;;;;;5073955;28;20255;-68
2022/04/25 11:48:58;;;;;;;4.10;3.80;;;14.30;99.90;;;;;;5073925;28;20168;-68
2022/04/25 11:51:31;;;;;;;5.00;4.70;;;14.40;99.90;;;;;;5073790;28;20168;-68
2022/04/25 11:54:03;;;;;;;4.88;4.45;;;14.50;99.90;;;;;;5072671;28;20168;-68
2022/04/25 11:56:33;;;;;;;4.95;4.55;;;14.50;99.90;;;;;;5073624;28;20240;-68
2022/04/25 11:59:05;;;;;;;3.97;3.78;;;14.60;99.90;;;;;;5074021;28;20169;-68
2022/04/25 12:01:41;;;;;;;6.00;3.88;;;14.70;99.90;;;;;;5072447;28;20532;-68
2022/04/25 12:04:27;;;;;;;6.55;4.15;;;14.70;99.90;;;;;;5073826;28;20167;-68
2022/04/25 12:06:57;;;;;;;4.50;4.13;;;14.60;99.90;;;;;;5073700;28;20164;-68
2022/04/25 12:17:51;;;;;;;4.03;3.72;;;14.90;99.90;;;;;;5073728;28;20205;-68
2022/04/25 12:20:29;;;;;;;4.57;4.18;;;14.70;99.90;;;;;;5073435;28;20718;-68
2022/04/25 12:22:59;;;;;;;3.42;3.20;;;14.70;99.90;;;;;;5073487;28;20224;-68
2022/04/25 12:25:27;;;;;;;4.35;4.05;;;14.80;99.90;;;;;;5073425;28;20183;-68
2022/04/25 12:28:15;;;;;;;3.70;3.50;;;14.70;99.90;;;;;;5073454;28;20164;-68
2022/04/25 12:30:48;;;;;;;3.72;3.47;;;14.70;99.90;;;;;;5073746;28;20161;-68
2022/04/25 12:33:14;;;;;;;4.43;3.97;;;14.70;99.90;;;;;;5073349;28;20561;-68
2022/04/25 12:35:41;;;;;;;5.10;4.05;;;14.70;99.90;;;;;;5073379;28;20180;-68
2022/04/25 12:38:08;;;;;;;4.30;3.63;;;14.70;99.90;;;;;;5073350;28;20164;-68
2022/04/25 12:40:56;;;;;;;3.25;3.05;;;14.80;99.90;;;;;;5073262;28;20179;-68
2022/04/25 12:43:38;;;;;;;3.70;3.50;;;15.10;99.90;;;;;;5073308;28;20746;-68
2022/04/25 12:46:06;;;;;;;3.75;3.55;;;15.40;99.90;;;;;;5073479;28;20506;-68
2022/04/25 12:49:05;;;;;;;3.80;3.60;;;15.20;99.90;;;;;;5073405;28;20541;-68
2022/04/25 12:51:36;;;;;;;4.05;3.85;;;15.20;99.90;;;;;;5072170;28;20222;-68
2022/04/25 12:54:04;;;;;;;3.78;3.58;;;15.10;99.90;;;;;;5073265;28;20545;-68
2022/04/25 12:56:33;;;;;;;3.83;3.63;;;15.00;99.90;;;;;;5073252;28;20191;-68
2022/04/25 12:58:59;;;;;;;3.63;3.42;;;15.00;99.90;;;;;;5072145;28;20538;-68
2022/04/25 13:01:36;;;;;;;3.58;3.38;;;14.90;99.90;;;;;;5072991;28;20203;-68
2022/04/25 13:04:13;;;;;;;3.92;3.63;;;14.80;99.90;;;;;;5072010;28;20175;-68
2022/04/25 13:06:43;;;;;;;3.50;3.30;;;15.00;99.90;;;;;;5073156;28;20179;-68
2022/04/25 13:09:10;;;;;;;3.35;3.20;;;15.20;99.90;;;;;;5074973;28;20165;-68
2022/04/25 13:11:38;;;;;;;3.60;3.40;;;15.30;99.90;;;;;;5076881;28;20165;-68
2022/04/25 13:14:06;;;;;;;3.97;3.78;;;15.50;99.90;;;;;;5076830;28;20172;-68
2022/04/25 13:16:32;;;;;;;3.30;3.20;;;15.60;99.90;;;;;;5076730;28;20176;-68
2022/04/25 13:18:58;;;;;;;3.45;3.22;;;15.60;99.90;;;;;;5076867;28;20565;-68
2022/04/25 13:21:24;;;;;;;3.80;3.60;;;15.30;99.90;;;;;;5076275;28;20258;-68
2022/04/25 13:23:50;;;;;;;3.58;3.38;;;15.10;99.90;;;;;;5075382;28;20188;-68
2022/04/25 13:26:19;;;;;;;3.38;3.17;;;14.80;99.90;;;;;;5076591;28;20634;-68
2022/04/25 13:28:45;;;;;;;4.40;3.83;;;14.70;99.90;;;;;;5076457;28;20172;-68
2022/04/25 13:31:11;;;;;;;3.90;3.70;;;14.60;99.90;;;;;;5076514;28;20298;-68
2022/04/25 13:33:37;;;;;;;3.80;3.50;;;14.50;99.90;;;;;;5075272;28;20169;-68
2022/04/25 13:36:05;;;;;;;4.07;3.67;;;14.50;99.90;;;;;;5076486;28;20171;-68
2022/04/25 13:38:32;;;;;;;4.07;3.88;;;14.50;99.90;;;;;;5076404;28;20524;-68
2022/04/25 13:40:57;;;;;;;4.28;4.07;;;14.30;99.90;;;;;;5076351;28;20564;-68
2022/04/25 13:43:23;;;;;;;3.97;3.78;;;14.20;99.90;;;;;;5076171;28;20208;-68
2022/04/25 13:45:49;;;;;;;4.07;3.88;;;14.20;99.90;;;;;;5076310;28;20525;-68
2022/04/25 13:48:16;;;;;;;4.60;3.80;;;14.10;99.90;;;;;;5076168;28;20267;-68
2022/04/25 13:50:44;;;;;;;3.97;3.75;;;14.10;99.90;;;;;;5076085;28;20217;-68
2022/04/25 13:53:10;;;;;;;3.45;3.35;;;14.20;99.90;;;;;;5076066;28;20181;-68
2022/04/25 13:55:37;;;;;;;3.88;3.67;;;14.40;99.90;;;;;;5074554;28;20180;-68
2022/04/25 13:58:04;;;;;;;4.50;4.20;;;14.60;99.90;;;;;;5075564;28;20583;-68
2022/04/25 14:00:30;;;;;;;4.90;4.35;;;14.70;99.90;;;;;;5074455;28;20172;-68
2022/04/25 14:03:08;;;;;;;4.22;3.85;;;14.70;99.90;;;;;;5075898;28;20286;-68
2022/04/25 14:05:46;;;;;;;3.85;3.65;;;14.70;99.90;;;;;;5075714;28;20163;-68
2022/04/25 14:08:13;;;;;;;4.15;3.78;;;14.60;99.90;;;;;;5075897;28;20237;-68
2022/04/25 14:10:43;;;;;;;4.65;4.32;;;14.40;99.90;;;;;;5075701;28;20161;-68
2022/04/25 14:13:11;;;;;;;3.65;3.45;;;14.40;99.90;;;;;;5075677;28;20168;-68
2022/04/25 14:15:38;;;;;;;3.65;3.45;;;14.50;99.90;;;;;;5075530;28;20196;-68
2022/04/25 14:18:04;;;;;;;4.38;4.07;;;14.30;99.90;;;;;;5075508;28;20266;-68
2022/04/25 14:20:30;;;;;;;4.57;4.18;;;14.20;99.90;;;;;;5075225;28;20169;-68
2022/04/25 14:22:58;;;;;;;4.65;4.35;;;14.10;99.90;;;;;;5075097;28;20231;-68
2022/04/25 14:25:23;;;;;;;4.65;4.35;;;13.90;99.90;;;;;;5075411;28;20195;-68
2022/04/25 14:27:49;;;;;;;4.20;3.90;;;13.90;99.90;;;;;;5075222;28;20249;-68
2022/04/25 14:30:15;;;;;;;3.90;3.70;;;13.90;99.90;;;;;;5075319;28;20169;-68
2022/04/25 14:32:40;;;;;;;4.38;4.07;;;14.10;99.90;;;;;;5075239;28;20628;-68
2022/04/25 14:35:06;;;;;;;4.43;4.18;;;14.20;99.90;;;;;;5075137;28;20175;-68
2022/04/25 14:37:32;;;;;;;5.22;4.90;;;14.20;99.90;;;;;;5075193;28;20245;-68
2022/04/25 14:39:58;;;;;;;5.88;4.85;;;14.20;99.90;;;;;;5075123;28;20172;-68
2022/04/25 14:42:26;;;;;;;5.35;4.95;;;14.20;99.90;;;;;;5074489;28;20673;-68
2022/04/25 14:44:53;;;;;;;5.47;5.07;;;14.00;99.90;;;;;;5074596;28;20243;-69
2022/04/25 14:47:19;;;;;;;4.65;4.35;;;13.80;99.90;;;;;;5073283;28;20180;-68
2022/04/25 14:55:25;;;;;;;3.85;3.65;;;13.60;99.90;;;;;;5074689;28;20663;-69
2022/04/25 14:57:51;;;;;;;4.20;4.00;;;13.70;99.90;;;;;;5074556;28;20170;-69
2022/04/25 15:00:22;;;;;;;4.10;3.90;;;13.80;99.90;;;;;;5074547;28;20164;-69
2022/04/25 15:03:02;;;;;;;5.30;4.95;;;13.80;99.90;;;;;;5072863;28;20214;-69
2022/04/25 15:05:29;;;;;;;5.05;4.57;;;13.70;99.90;;;;;;5073307;28;20548;-68
2022/04/25 15:07:55;;;;;;;4.53;4.22;;;13.60;99.90;;;;;;5073208;28;20176;-68
2022/04/25 15:10:20;;;;;;;5.03;4.55;;;13.60;99.90;;;;;;5074256;28;20195;-68
2022/04/25 15:12:46;;;;;;;4.78;4.47;;;13.70;99.90;;;;;;5074185;28;20626;-68
2022/04/25 15:15:12;;;;;;;4.93;4.63;;;13.70;99.90;;;;;;5074211;28;20164;-68
2022/04/25 15:17:38;;;;;;;4.90;4.45;;;13.70;99.90;;;;;;5074153;28;20169;-68
2022/04/25 15:20:04;;;;;;;4.43;4.13;;;13.70;99.90;;;;;;5074055;28;20176;-69
2022/04/25 15:22:31;;;;;;;4.97;4.68;;;13.80;99.90;;;;;;5073628;28;20303;-69
2022/04/25 15:25:23;;;;;;;5.47;5.00;;;13.80;99.90;;;;;;5074123;28;20168;-68
2022/04/25 15:27:48;;;;;;;6.13;5.72;;;13.80;99.90;;;;;;5072616;28;20183;-68
2022/04/25 15:30:27;;;;;;;6.00;5.60;;;13.80;99.90;;;;;;5073775;28;20196;-68
2022/04/25 15:32:58;;;;;;;6.53;6.07;;;13.70;99.90;;;;;;5072714;28;20610;-69
2022/04/25 15:35:25;;;;;;;6.63;5.90;;;13.60;99.90;;;;;;5072467;28;20176;-69
2022/04/25 15:37:54;;;;;;;5.97;5.43;;;13.50;99.90;;;;;;5072446;28;20626;-69
2022/04/25 15:40:20;;;;;;;6.82;5.70;;;13.30;99.90;;;;;;5073881;28;20180;-69
2022/04/25 15:42:47;;;;;;;7.32;5.63;;;13.20;99.90;;;;;;5072514;28;20200;-69
2022/04/25 15:45:13;;;;;;;5.90;5.53;;;13.10;99.90;;;;;;5072441;28;20172;-69
2022/04/25 15:47:43;;;;;;;5.53;5.03;;;13.00;99.90;;;;;;5072597;28;20527;-69
2022/04/25 15:50:09;;;;;;;5.07;4.78;;;12.90;99.90;;;;;;5072505;28;20177;-69
2022/04/25 15:52:36;;;;;;;5.43;5.03;;;12.80;99.90;;;;;;5072365;28;20306;-69
